Time;durP1;ratioP1;P1;durP2;ratioP2;P2;SDS_P1;SDS_P2;PMS_P1;PMS_P2;Temp;Humidity;BMP_temperature;BMP_pressure;BME280_temperature;BME280_humidity;BME280_pressure;Samples;Min_cycle;Max_cycle;Signal;HPM_P1;HPM_P2
2023/10/29 00:01:57;;;;;;;;;0.00;0.00;;;;;;;;5103508;27;45539;-79
2023/10/29 00:04:22;;;;;;;;;0.00;0.00;;;;;;;;5103983;27;45340;-78
2023/10/29 00:06:47;;;;;;;;;0.00;0.00;;;;;;;;5103773;27;46052;-78
2023/10/29 00:09:13;;;;;;;;;0.00;0.00;;;;;;;;5103218;27;45230;-79
2023/10/29 00:11:38;;;;;;;;;0.75;0.75;;;;;;;;5103867;27;45281;-78
2023/10/29 00:14:03;;;;;;;;;0.00;0.00;;;;;;;;5103236;27;45264;-78
2023/10/29 00:16:29;;;;;;;;;0.00;0.00;;;;;;;;5103531;27;45334;-78
2023/10/29 00:18:54;;;;;;;;;0.00;0.00;;;;;;;;5103828;27;45644;-78
2023/10/29 00:21:19;;;;;;;;;0.67;0.67;;;;;;;;5104329;27;45312;-78
2023/10/29 00:23:44;;;;;;;;;0.00;0.00;;;;;;;;5105931;27;45745;-77
2023/10/29 00:26:09;;;;;;;;;0.00;0.00;;;;;;;;5105065;27;46297;-77
2023/10/29 00:28:35;;;;;;;;;0.00;0.00;;;;;;;;5102545;27;45463;-78
2023/10/29 00:31:00;;;;;;;;;0.25;0.25;;;;;;;;5083985;28;45301;-78
2023/10/29 00:33:25;;;;;;;;;0.00;0.00;;;;;;;;5083525;28;45271;-78
2023/10/29 00:35:50;;;;;;;;;0.00;0.00;;;;;;;;5084289;28;46215;-78
2023/10/29 00:38:15;;;;;;;;;0.00;0.00;;;;;;;;5083954;28;45271;-77
2023/10/29 00:40:41;;;;;;;;;0.75;0.75;;;;;;;;5085457;28;45325;-78
2023/10/29 00:43:06;;;;;;;;;1.00;1.00;;;;;;;;5083367;28;45243;-78
2023/10/29 00:45:31;;;;;;;;;1.00;0.50;;;;;;;;5084445;28;46478;-77
2023/10/29 00:47:57;;;;;;;;;2.00;2.00;;;;;;;;5084318;28;45252;-78
2023/10/29 00:50:23;;;;;;;;;0.00;0.00;;;;;;;;5084046;28;45363;-78
2023/10/29 00:52:48;;;;;;;;;0.50;0.00;;;;;;;;5084848;28;45283;-79
2023/10/29 00:55:14;;;;;;;;;0.00;0.00;;;;;;;;5081914;28;47241;-79
2023/10/29 00:57:40;;;;;;;;;0.75;0.75;;;;;;;;5084135;28;45223;-78
2023/10/29 01:00:06;;;;;;;;;0.00;0.00;;;;;;;;5082758;28;45464;-78
2023/10/29 01:02:31;;;;;;;;;1.50;1.00;;;;;;;;5083714;28;45512;-79
2023/10/29 01:04:57;;;;;;;;;1.00;1.00;;;;;;;;5084480;28;45308;-78
2023/10/29 01:07:22;;;;;;;;;0.00;0.00;;;;;;;;5083141;28;45363;-77
2023/10/29 01:09:48;;;;;;;;;0.00;0.00;;;;;;;;5083022;28;45303;-79
2023/10/29 01:12:14;;;;;;;;;0.00;0.00;;;;;;;;5082941;28;45329;-80
2023/10/29 01:14:40;;;;;;;;;0.00;0.00;;;;;;;;5082975;28;45382;-78
2023/10/29 01:17:05;;;;;;;;;0.00;0.00;;;;;;;;5083239;28;45268;-77
2023/10/29 01:19:30;;;;;;;;;0.00;0.00;;;;;;;;5083090;28;45332;-80
2023/10/29 01:21:56;;;;;;;;;0.00;0.00;;;;;;;;5084359;28;45499;-79
2023/10/29 01:24:21;;;;;;;;;1.00;0.00;;;;;;;;5082492;28;45245;-78
2023/10/29 01:26:46;;;;;;;;;1.00;0.00;;;;;;;;5080368;28;45192;-79
2023/10/29 01:29:11;;;;;;;;;0.00;0.00;;;;;;;;5089842;27;45405;-78
2023/10/29 01:31:36;;;;;;;;;0.25;0.25;;;;;;;;5103300;27;45308;-79
2023/10/29 01:34:01;;;;;;;;;0.00;0.00;;;;;;;;5103229;27;45350;-77
2023/10/29 01:36:27;;;;;;;;;1.00;1.00;;;;;;;;5102522;27;45277;-80
2023/10/29 01:38:52;;;;;;;;;0.50;0.50;;;;;;;;5104055;27;45520;-79
2023/10/29 01:41:17;;;;;;;;;0.50;0.00;;;;;;;;5103353;27;45360;-80
2023/10/29 01:43:42;;;;;;;;;1.75;0.00;;;;;;;;5102153;27;45387;-78
2023/10/29 01:46:07;;;;;;;;;1.00;0.00;;;;;;;;5099707;27;45409;-79
2023/10/29 01:48:33;;;;;;;;;0.00;0.00;;;;;;;;5103197;27;45326;-79
2023/10/29 01:51:02;;;;;;;;;2.50;0.50;;;;;;;;5101343;27;45945;-78
2023/10/29 01:53:27;;;;;;;;;1.00;0.75;;;;;;;;5101541;27;48525;-80
2023/10/29 01:55:53;;;;;;;;;1.00;1.00;;;;;;;;5101921;27;45360;-78
2023/10/29 01:58:18;;;;;;;;;1.00;0.00;;;;;;;;5102728;27;45218;-79
2023/10/29 02:00:44;;;;;;;;;0.00;0.00;;;;;;;;5102911;27;45297;-77
2023/10/29 02:03:09;;;;;;;;;0.00;0.00;;;;;;;;5102057;27;45326;-79
2023/10/29 02:05:34;;;;;;;;;2.00;0.50;;;;;;;;5102324;27;45588;-78
2023/10/29 02:07:59;;;;;;;;;0.00;0.00;;;;;;;;5102434;27;45162;-78
2023/10/29 02:10:25;;;;;;;;;1.25;0.25;;;;;;;;5102863;27;45313;-79
2023/10/29 02:12:50;;;;;;;;;0.50;0.00;;;;;;;;5103499;27;45965;-78
2023/10/29 02:15:16;;;;;;;;;0.75;0.00;;;;;;;;5101429;27;45337;-78
2023/10/29 02:17:41;;;;;;;;;0.00;0.00;;;;;;;;5104102;27;45458;-78
2023/10/29 02:20:06;;;;;;;;;0.50;0.50;;;;;;;;5102531;27;45239;-78
2023/10/29 02:22:32;;;;;;;;;0.25;0.00;;;;;;;;5102281;27;45307;-77
2023/10/29 02:24:57;;;;;;;;;1.00;0.00;;;;;;;;5100653;27;45325;-78
2023/10/29 02:27:22;;;;;;;;;0.00;0.00;;;;;;;;5101805;27;45333;-79
2023/10/29 02:29:47;;;;;;;;;0.50;0.00;;;;;;;;5088710;27;45534;-78
2023/10/29 02:32:12;;;;;;;;;0.00;0.00;;;;;;;;5081106;28;45571;-78
2023/10/29 02:34:37;;;;;;;;;0.50;0.00;;;;;;;;5080689;28;45295;-78
2023/10/29 02:37:03;;;;;;;;;0.75;0.00;;;;;;;;5081840;28;45365;-78
2023/10/29 02:39:28;;;;;;;;;0.75;0.50;;;;;;;;5081746;28;45300;-77
2023/10/29 02:41:53;;;;;;;;;1.00;1.00;;;;;;;;5079167;28;47051;-77
2023/10/29 02:44:18;;;;;;;;;0.00;0.00;;;;;;;;5080564;28;45256;-78
2023/10/29 02:46:43;;;;;;;;;1.00;0.25;;;;;;;;5080183;28;45334;-77
2023/10/29 02:49:08;;;;;;;;;0.00;0.00;;;;;;;;5078835;28;46233;-77
2023/10/29 02:51:34;;;;;;;;;0.00;0.00;;;;;;;;5078562;28;47519;-78
2023/10/29 02:53:59;;;;;;;;;0.00;0.00;;;;;;;;5080378;28;45297;-78
2023/10/29 02:56:24;;;;;;;;;0.00;0.00;;;;;;;;5078867;28;45268;-77
2023/10/29 02:58:49;;;;;;;;;0.33;0.33;;;;;;;;5080118;28;45502;-78
2023/10/29 03:01:15;;;;;;;;;1.00;0.00;;;;;;;;5079878;28;45286;-78
2023/10/29 03:03:41;;;;;;;;;1.00;0.00;;;;;;;;5080214;28;45319;-78
2023/10/29 03:06:06;;;;;;;;;0.00;0.00;;;;;;;;5078538;28;45409;-78
2023/10/29 03:08:32;;;;;;;;;0.00;0.00;;;;;;;;5079855;28;45314;-77
2023/10/29 03:10:58;;;;;;;;;0.00;0.00;;;;;;;;5079786;28;46707;-78
2023/10/29 03:13:23;;;;;;;;;0.00;0.00;;;;;;;;5080105;28;45482;-77
2023/10/29 03:15:48;;;;;;;;;1.75;0.00;;;;;;;;5080204;28;45313;-78
2023/10/29 03:18:14;;;;;;;;;0.00;0.00;;;;;;;;5079504;28;45357;-78
2023/10/29 03:20:39;;;;;;;;;1.50;0.50;;;;;;;;5078130;28;47974;-78
2023/10/29 03:23:04;;;;;;;;;0.75;0.00;;;;;;;;5079718;28;45355;-78
2023/10/29 03:25:29;;;;;;;;;0.00;0.00;;;;;;;;5079738;28;45267;-78
2023/10/29 03:27:56;;;;;;;;;0.20;0.20;;;;;;;;5079620;28;45313;-77
2023/10/29 03:30:21;;;;;;;;;1.00;1.00;;;;;;;;5096933;27;46560;-78
2023/10/29 03:32:46;;;;;;;;;2.00;1.00;;;;;;;;5098715;27;45419;-78
2023/10/29 03:35:11;;;;;;;;;3.00;1.50;;;;;;;;5101950;27;45240;-77
2023/10/29 03:37:36;;;;;;;;;0.25;0.00;;;;;;;;5103493;27;45324;-78
2023/10/29 03:40:02;;;;;;;;;0.00;0.00;;;;;;;;5103341;27;46290;-78
2023/10/29 03:42:27;;;;;;;;;0.00;0.00;;;;;;;;5103869;27;45204;-77
2023/10/29 03:44:52;;;;;;;;;2.00;0.50;;;;;;;;5103930;27;45326;-77
2023/10/29 03:47:17;;;;;;;;;1.75;0.00;;;;;;;;5103087;27;45508;-77
2023/10/29 03:49:42;;;;;;;;;1.00;0.00;;;;;;;;5103253;27;46127;-77
2023/10/29 03:52:08;;;;;;;;;0.25;0.25;;;;;;;;5102018;27;45357;-78
2023/10/29 03:54:33;;;;;;;;;0.50;0.00;;;;;;;;5101911;27;45291;-77
2023/10/29 03:56:58;;;;;;;;;0.00;0.00;;;;;;;;5101901;27;47172;-77
2023/10/29 03:59:24;;;;;;;;;2.00;0.25;;;;;;;;5103267;27;46312;-78
2023/10/29 04:01:49;;;;;;;;;0.00;0.00;;;;;;;;5101924;27;45470;-78
2023/10/29 04:04:15;;;;;;;;;0.25;0.00;;;;;;;;5103331;27;45203;-78
2023/10/29 04:06:40;;;;;;;;;5.00;3.00;;;;;;;;5103073;27;45382;-77
2023/10/29 04:09:05;;;;;;;;;0.25;0.00;;;;;;;;5101612;27;46275;-78
2023/10/29 04:11:30;;;;;;;;;0.00;0.00;;;;;;;;5102971;27;45277;-78
2023/10/29 04:13:55;;;;;;;;;1.00;1.00;;;;;;;;5103222;27;45274;-78
2023/10/29 04:16:21;;;;;;;;;1.00;1.00;;;;;;;;5101833;27;46170;-77
2023/10/29 04:18:46;;;;;;;;;1.00;1.00;;;;;;;;5102998;27;45355;-78
2023/10/29 04:21:11;;;;;;;;;0.25;0.25;;;;;;;;5102752;27;45449;-77
2023/10/29 04:23:37;;;;;;;;;3.00;0.75;;;;;;;;5102934;27;45298;-77
2023/10/29 04:26:02;;;;;;;;;2.00;1.50;;;;;;;;5102653;27;45353;-77
2023/10/29 04:28:27;;;;;;;;;0.75;0.75;;;;;;;;5099816;27;46871;-78
2023/10/29 04:30:54;;;;;;;;;0.50;0.25;;;;;;;;5082283;28;45328;-78
2023/10/29 04:33:19;;;;;;;;;1.00;0.00;;;;;;;;5082315;28;45417;-77
2023/10/29 04:35:44;;;;;;;;;2.25;1.25;;;;;;;;5082071;28;45315;-78
2023/10/29 04:38:10;;;;;;;;;1.00;0.00;;;;;;;;5082191;28;46211;-77
2023/10/29 04:40:35;;;;;;;;;1.75;1.75;;;;;;;;5081848;28;45381;-77
2023/10/29 04:43:00;;;;;;;;;1.50;0.25;;;;;;;;5082256;28;45597;-78
2023/10/29 04:45:25;;;;;;;;;1.25;0.00;;;;;;;;5082115;28;45311;-78
2023/10/29 04:47:50;;;;;;;;;1.75;0.25;;;;;;;;5080953;28;45326;-77
2023/10/29 04:50:15;;;;;;;;;0.50;0.50;;;;;;;;5080582;28;45827;-77
2023/10/29 04:52:41;;;;;;;;;0.00;0.00;;;;;;;;5082076;28;45285;-77
2023/10/29 04:55:06;;;;;;;;;0.00;0.00;;;;;;;;5081650;28;45524;-77
2023/10/29 04:57:31;;;;;;;;;0.50;0.00;;;;;;;;5080390;28;48584;-77
2023/10/29 04:59:57;;;;;;;;;0.00;0.00;;;;;;;;5081655;28;45190;-77
2023/10/29 05:02:22;;;;;;;;;0.00;0.00;;;;;;;;5082027;28;45384;-77
2023/10/29 05:04:48;;;;;;;;;0.00;0.00;;;;;;;;5081703;28;45467;-77
2023/10/29 05:07:13;;;;;;;;;0.00;0.00;;;;;;;;5081075;28;46141;-77
2023/10/29 05:09:38;;;;;;;;;0.00;0.00;;;;;;;;5081622;28;45409;-77
2023/10/29 05:12:04;;;;;;;;;1.75;1.00;;;;;;;;5081749;28;45266;-77
2023/10/29 05:14:29;;;;;;;;;0.00;0.00;;;;;;;;5080257;28;46946;-77
2023/10/29 05:16:54;;;;;;;;;0.00;0.00;;;;;;;;5079937;28;47467;-77
2023/10/29 05:19:20;;;;;;;;;1.00;0.00;;;;;;;;5081563;28;45297;-77
2023/10/29 05:21:45;;;;;;;;;1.75;0.75;;;;;;;;5081470;28;45213;-77
2023/10/29 05:24:10;;;;;;;;;1.00;0.00;;;;;;;;5081121;28;45356;-77
2023/10/29 05:26:37;;;;;;;;;0.00;0.00;;;;;;;;5081141;28;46227;-77
2023/10/29 05:29:02;;;;;;;;;0.00;0.00;;;;;;;;5087611;27;45235;-77
2023/10/29 05:31:28;;;;;;;;;1.50;0.75;;;;;;;;5101825;27;45306;-77
2023/10/29 05:33:53;;;;;;;;;0.75;0.00;;;;;;;;5101748;27;45409;-77
2023/10/29 05:36:18;;;;;;;;;0.00;0.00;;;;;;;;5101430;27;46290;-77
2023/10/29 05:38:44;;;;;;;;;0.50;0.50;;;;;;;;5100309;27;45400;-77
2023/10/29 05:41:09;;;;;;;;;0.00;0.00;;;;;;;;5101521;27;45748;-77
2023/10/29 05:43:36;;;;;;;;;1.00;1.00;;;;;;;;5100328;27;46045;-78
2023/10/29 05:46:01;;;;;;;;;1.00;1.00;;;;;;;;5101239;27;46361;-78
2023/10/29 05:48:27;;;;;;;;;0.00;0.00;;;;;;;;5101493;27;45300;-77
2023/10/29 05:50:52;;;;;;;;;0.00;0.00;;;;;;;;5100191;27;45454;-77
2023/10/29 05:53:17;;;;;;;;;0.00;0.00;;;;;;;;5101486;27;45431;-77
2023/10/29 05:55:42;;;;;;;;;0.25;0.25;;;;;;;;5101118;27;45329;-78
2023/10/29 05:58:08;;;;;;;;;1.25;0.25;;;;;;;;5101259;27;45228;-78
2023/10/29 06:00:33;;;;;;;;;0.75;0.25;;;;;;;;5098828;27;45257;-77
2023/10/29 06:02:58;;;;;;;;;1.00;1.00;;;;;;;;5099271;27;47234;-78
2023/10/29 06:05:23;;;;;;;;;2.75;0.50;;;;;;;;5100995;27;45592;-77
2023/10/29 06:07:48;;;;;;;;;0.75;0.75;;;;;;;;5101137;27;45283;-77
2023/10/29 06:10:14;;;;;;;;;1.00;1.00;;;;;;;;5099839;27;45273;-78
2023/10/29 06:12:40;;;;;;;;;0.75;0.00;;;;;;;;5100977;27;45440;-78
2023/10/29 06:15:07;;;;;;;;;1.00;0.00;;;;;;;;5101025;27;46100;-78
2023/10/29 06:17:33;;;;;;;;;0.00;0.00;;;;;;;;5099762;27;45865;-78
2023/10/29 06:19:58;;;;;;;;;1.25;0.00;;;;;;;;5101292;27;45311;-77
2023/10/29 06:22:23;;;;;;;;;0.25;0.00;;;;;;;;5100363;27;45387;-78
2023/10/29 06:24:49;;;;;;;;;0.25;0.00;;;;;;;;5100437;27;45388;-78
2023/10/29 06:27:14;;;;;;;;;0.25;0.00;;;;;;;;5100764;27;45350;-78
2023/10/29 06:29:39;;;;;;;;;0.75;0.00;;;;;;;;5081809;27;45525;-78
2023/10/29 06:32:04;;;;;;;;;0.75;0.00;;;;;;;;5067343;28;45480;-79
2023/10/29 06:34:29;;;;;;;;;0.25;0.25;;;;;;;;5058502;28;48057;-78
2023/10/29 06:36:55;;;;;;;;;1.25;0.00;;;;;;;;5064818;28;45460;-78
2023/10/29 06:39:20;;;;;;;;;2.00;0.25;;;;;;;;5079612;28;45311;-79
2023/10/29 06:41:45;;;;;;;;;2.25;0.25;;;;;;;;5080370;28;45490;-80
2023/10/29 06:44:10;;;;;;;;;2.25;0.25;;;;;;;;5079428;28;46946;-78
2023/10/29 06:46:35;;;;;;;;;0.75;0.00;;;;;;;;5080375;28;45278;-77
2023/10/29 06:49:00;;;;;;;;;0.33;0.00;;;;;;;;5076804;28;45294;-77
2023/10/29 06:51:26;;;;;;;;;0.75;0.00;;;;;;;;5080001;28;45416;-77
2023/10/29 06:53:51;;;;;;;;;0.00;0.00;;;;;;;;5080040;28;45292;-77
2023/10/29 06:56:17;;;;;;;;;0.00;0.00;;;;;;;;5073027;28;45257;-78
2023/10/29 06:58:42;;;;;;;;;0.25;0.25;;;;;;;;5067331;28;45238;-77
2023/10/29 07:01:11;;;;;;;;;2.00;1.50;;;;;;;;5070872;28;45263;-77
2023/10/29 07:03:37;;;;;;;;;2.25;0.25;;;;;;;;5075990;28;46241;-77
2023/10/29 07:06:05;;;;;;;;;2.25;2.25;;;;;;;;5066482;28;45435;-76
2023/10/29 07:08:31;;;;;;;;;3.00;0.25;;;;;;;;5063551;28;45333;-76
2023/10/29 07:10:56;;;;;;;;;0.00;0.00;;;;;;;;5072827;27;45636;-76
2023/10/29 07:13:21;;;;;;;;;0.00;0.00;;;;;;;;5073912;28;45306;-76
2023/10/29 07:15:46;;;;;;;;;0.50;0.50;;;;;;;;5086244;28;45145;-77
2023/10/29 07:18:11;;;;;;;;;0.00;0.00;;;;;;;;5078411;28;45361;-76
2023/10/29 07:20:37;;;;;;;;;0.00;0.00;;;;;;;;5066103;28;45578;-77
2023/10/29 07:23:02;;;;;;;;;3.33;1.33;;;;;;;;5066867;28;46475;-77
2023/10/29 07:25:27;;;;;;;;;3.33;0.33;;;;;;;;5065969;28;45295;-77
2023/10/29 07:27:52;;;;;;;;;1.67;1.00;;;;;;;;5065141;28;45256;-77
2023/10/29 07:30:17;;;;;;;;;2.00;1.00;;;;;;;;5086713;27;46312;-77
2023/10/29 07:32:43;;;;;;;;;1.00;0.67;;;;;;;;5082549;28;47041;-77
2023/10/29 07:35:08;;;;;;;;;0.00;0.00;;;;;;;;5091097;27;45408;-76
2023/10/29 07:37:33;;;;;;;;;1.67;1.00;;;;;;;;5092547;27;45541;-76
2023/10/29 07:39:58;;;;;;;;;1.00;1.00;;;;;;;;5083587;27;46459;-76
2023/10/29 07:42:24;;;;;;;;;1.00;1.00;;;;;;;;5085507;28;45330;-76
2023/10/29 07:44:50;;;;;;;;;0.00;0.00;;;;;;;;5084812;27;45241;-76
2023/10/29 07:47:15;;;;;;;;;0.00;0.00;;;;;;;;5085429;28;45328;-76
2023/10/29 07:49:41;;;;;;;;;0.00;0.00;;;;;;;;5084776;28;46250;-77
2023/10/29 07:52:06;;;;;;;;;0.00;0.00;;;;;;;;5085948;28;45707;-77
2023/10/29 07:54:31;;;;;;;;;1.25;0.00;;;;;;;;5085956;28;45361;-77
2023/10/29 07:56:57;;;;;;;;;0.50;0.00;;;;;;;;5086779;28;45302;-77
2023/10/29 07:59:23;;;;;;;;;0.00;0.00;;;;;;;;5085699;28;46158;-77
2023/10/29 08:01:49;;;;;;;;;0.67;0.33;;;;;;;;5086980;28;45314;-77
2023/10/29 08:04:14;;;;;;;;;0.00;0.00;;;;;;;;5085192;27;45424;-77
2023/10/29 08:06:39;;;;;;;;;0.00;0.00;;;;;;;;5086266;28;45477;-78
2023/10/29 08:09:04;;;;;;;;;13.33;11.67;;;;;;;;5065468;28;46078;-77
2023/10/29 08:11:30;;;;;;;;;1.50;0.50;;;;;;;;5064937;28;46974;-77
2023/10/29 08:13:56;;;;;;;;;0.00;0.00;;;;;;;;5085918;28;45260;-77
2023/10/29 08:16:21;;;;;;;;;0.00;0.00;;;;;;;;5081341;28;45237;-77
2023/10/29 08:18:47;;;;;;;;;0.00;0.00;;;;;;;;5064906;28;45842;-78
2023/10/29 08:21:12;;;;;;;;;1.25;1.00;;;;;;;;5063126;28;45547;-77
2023/10/29 08:23:37;;;;;;;;;0.00;0.00;;;;;;;;5062892;28;45185;-77
2023/10/29 08:26:02;;;;;;;;;0.00;0.00;;;;;;;;5062597;28;45434;-78
2023/10/29 08:28:28;;;;;;;;;0.50;0.00;;;;;;;;5064099;27;45826;-77
2023/10/29 08:30:53;;;;;;;;;0.50;0.50;;;;;;;;5103534;27;46062;-78
2023/10/29 08:33:19;;;;;;;;;0.00;0.00;;;;;;;;5101794;27;45322;-79
2023/10/29 08:35:44;;;;;;;;;0.00;0.00;;;;;;;;5102025;27;45319;-79
2023/10/29 08:38:10;;;;;;;;;0.00;0.00;;;;;;;;5102748;27;45213;-78
2023/10/29 08:40:35;;;;;;;;;3.00;1.67;;;;;;;;5101024;27;47044;-80
2023/10/29 08:43:03;;;;;;;;;0.00;0.00;;;;;;;;5103690;27;45403;-78
2023/10/29 08:45:28;;;;;;;;;0.00;0.00;;;;;;;;5102709;27;45321;-80
2023/10/29 08:47:53;;;;;;;;;1.00;0.00;;;;;;;;5102879;27;45319;-77
2023/10/29 08:50:19;;;;;;;;;0.75;0.00;;;;;;;;5102841;27;46087;-78
2023/10/29 08:52:44;;;;;;;;;3.33;0.00;;;;;;;;5100382;27;45322;-77
2023/10/29 08:55:09;;;;;;;;;0.25;0.00;;;;;;;;5082469;28;45664;-78
2023/10/29 08:57:35;;;;;;;;;0.00;0.00;;;;;;;;5082493;28;45774;-78
2023/10/29 09:00:00;;;;;;;;;0.00;0.00;;;;;;;;5086447;28;48115;-77
2023/10/29 09:02:25;;;;;;;;;1.00;0.00;;;;;;;;5082728;28;45294;-77
2023/10/29 09:04:56;;;;;;;;;0.00;0.00;;;;;;;;5080847;28;45407;-78
2023/10/29 09:07:21;;;;;;;;;0.00;0.00;;;;;;;;5064641;28;46225;-77
2023/10/29 09:09:48;;;;;;;;;0.50;0.25;;;;;;;;5073465;27;45314;-77
2023/10/29 09:12:13;;;;;;;;;0.00;0.00;;;;;;;;5080970;28;45259;-78
2023/10/29 09:14:38;;;;;;;;;0.00;0.00;;;;;;;;5095704;27;45414;-77
2023/10/29 09:17:04;;;;;;;;;0.00;0.00;;;;;;;;5101937;27;45409;-77
2023/10/29 09:19:29;;;;;;;;;0.00;0.00;;;;;;;;5088065;27;46273;-77
2023/10/29 09:21:54;;;;;;;;;0.00;0.00;;;;;;;;5081828;28;45295;-77
2023/10/29 09:24:19;;;;;;;;;0.00;0.00;;;;;;;;5092270;27;45481;-80
2023/10/29 09:26:44;;;;;;;;;1.00;0.00;;;;;;;;5084024;27;45353;-79
2023/10/29 09:29:09;;;;;;;;;0.00;0.00;;;;;;;;5082450;27;46159;-77
2023/10/29 09:31:35;;;;;;;;;1.00;1.00;;;;;;;;5081657;28;45385;-78
2023/10/29 09:34:01;;;;;;;;;0.00;0.00;;;;;;;;5088516;27;45423;-78
2023/10/29 09:36:26;;;;;;;;;0.00;0.00;;;;;;;;5101695;27;46085;-77
2023/10/29 09:38:51;;;;;;;;;0.00;0.00;;;;;;;;5101790;27;46371;-77
2023/10/29 09:41:19;;;;;;;;;0.00;0.00;;;;;;;;5089514;27;45287;-78
2023/10/29 09:43:46;;;;;;;;;0.25;0.25;;;;;;;;5081890;27;45231;-78
2023/10/29 09:46:11;;;;;;;;;0.00;0.00;;;;;;;;5081102;28;45535;-79
2023/10/29 09:48:37;;;;;;;;;1.25;0.25;;;;;;;;5081637;27;45991;-78
2023/10/29 09:51:03;;;;;;;;;3.00;0.25;;;;;;;;5081305;28;45330;-78
2023/10/29 09:53:30;;;;;;;;;0.00;0.00;;;;;;;;5081425;27;45358;-78
2023/10/29 09:55:56;;;;;;;;;0.00;0.00;;;;;;;;5080706;28;45240;-77
2023/10/29 09:58:23;;;;;;;;;0.00;0.00;;;;;;;;5080516;28;46377;-77
2023/10/29 10:00:49;;;;;;;;;0.00;0.00;;;;;;;;5080672;28;45335;-77
2023/10/29 10:03:14;;;;;;;;;0.00;0.00;;;;;;;;5081092;28;45291;-79
2023/10/29 10:05:41;;;;;;;;;0.00;0.00;;;;;;;;5075287;28;45514;-78
2023/10/29 10:08:06;;;;;;;;;1.00;0.00;;;;;;;;5072530;28;46282;-77
2023/10/29 10:10:50;;;;;;;;;0.00;0.00;;;;;;;;5067005;28;45881;-78
2023/10/29 10:13:15;;;;;;;;;0.00;0.00;;;;;;;;5074219;27;45654;-78
2023/10/29 10:15:41;;;;;;;;;1.00;0.00;;;;;;;;5073233;28;46185;-77
2023/10/29 10:18:06;;;;;;;;;0.00;0.00;;;;;;;;5072402;27;46346;-77
2023/10/29 10:20:35;;;;;;;;;0.00;0.00;;;;;;;;5071801;28;45533;-77
2023/10/29 10:23:00;;;;;;;;;0.00;0.00;;;;;;;;5067810;27;45429;-77
2023/10/29 10:25:26;;;;;;;;;0.00;0.00;;;;;;;;5073003;28;45326;-77
2023/10/29 10:27:52;;;;;;;;;0.75;0.00;;;;;;;;5064642;28;46517;-77
2023/10/29 10:30:47;;;;;;;;;0.00;0.00;;;;;;;;5072545;27;45231;-77
2023/10/29 10:33:19;;;;;;;;;0.00;0.00;;;;;;;;5064639;28;45363;-78
2023/10/29 10:35:46;;;;;;;;;0.00;0.00;;;;;;;;5077066;28;45530;-78
2023/10/29 10:38:11;;;;;;;;;1.00;1.00;;;;;;;;5069977;28;46296;-76
2023/10/29 10:40:37;;;;;;;;;0.00;0.00;;;;;;;;5073460;28;45346;-77
2023/10/29 10:43:03;;;;;;;;;0.00;0.00;;;;;;;;5069617;28;45396;-78
2023/10/29 10:45:28;;;;;;;;;0.00;0.00;;;;;;;;5068793;28;45500;-77
2023/10/29 10:47:54;;;;;;;;;0.00;0.00;;;;;;;;5060073;28;46517;-77
2023/10/29 10:50:20;;;;;;;;;0.00;0.00;;;;;;;;5061384;28;45566;-77
2023/10/29 10:52:46;;;;;;;;;0.00;0.00;;;;;;;;5067643;27;45642;-78
2023/10/29 10:55:11;;;;;;;;;1.00;1.00;;;;;;;;5075925;27;45385;-77
2023/10/29 10:57:36;;;;;;;;;0.00;0.00;;;;;;;;5068903;27;46155;-78
2023/10/29 11:00:05;;;;;;;;;0.00;0.00;;;;;;;;5078396;28;45457;-78
2023/10/29 11:02:32;;;;;;;;;3.00;0.00;;;;;;;;5066536;27;45378;-77
2023/10/29 11:04:57;;;;;;;;;0.00;0.00;;;;;;;;5079133;28;45500;-77
2023/10/29 11:07:22;;;;;;;;;0.00;0.00;;;;;;;;5075600;27;45349;-77
2023/10/29 11:09:48;;;;;;;;;0.00;0.00;;;;;;;;5078587;28;45452;-77
2023/10/29 11:12:13;;;;;;;;;0.00;0.00;;;;;;;;5079117;28;45230;-77
2023/10/29 11:14:38;;;;;;;;;1.50;0.00;;;;;;;;5077469;28;45345;-77
2023/10/29 11:17:03;;;;;;;;;0.00;0.00;;;;;;;;5078066;28;46545;-77
2023/10/29 11:19:44;;;;;;;;;0.00;0.00;;;;;;;;5077876;28;45320;-77
2023/10/29 11:22:19;;;;;;;;;0.00;0.00;;;;;;;;5078268;28;45652;-77
2023/10/29 11:25:03;;;;;;;;;0.00;0.00;;;;;;;;5079826;28;45444;-77
2023/10/29 11:27:35;;;;;;;;;0.00;0.00;;;;;;;;5080354;28;45369;-77
2023/10/29 11:30:10;;;;;;;;;0.00;0.00;;;;;;;;5094726;27;45354;-78
2023/10/29 11:32:35;;;;;;;;;0.75;0.00;;;;;;;;5101162;27;45417;-76
2023/10/29 11:35:16;;;;;;;;;0.25;0.25;;;;;;;;5100267;27;45405;-76
2023/10/29 11:37:41;;;;;;;;;0.00;0.00;;;;;;;;5100029;27;46581;-77
2023/10/29 11:40:25;;;;;;;;;0.00;0.00;;;;;;;;5099905;27;45210;-77
2023/10/29 11:42:53;;;;;;;;;0.00;0.00;;;;;;;;5099779;27;45401;-77
2023/10/29 11:45:27;;;;;;;;;0.00;0.00;;;;;;;;5100615;27;45302;-76
2023/10/29 11:48:26;;;;;;;;;0.00;0.00;;;;;;;;5099811;27;45215;-77
2023/10/29 11:51:00;;;;;;;;;2.00;1.00;;;;;;;;5099959;27;45462;-76
2023/10/29 11:53:25;;;;;;;;;0.00;0.00;;;;;;;;5099995;27;45445;-77
2023/10/29 11:55:51;;;;;;;;;1.75;0.00;;;;;;;;5079719;28;45374;-76
2023/10/29 11:58:22;;;;;;;;;0.00;0.00;;;;;;;;5062244;28;46728;-76
2023/10/29 12:00:47;;;;;;;;;0.00;0.00;;;;;;;;5062528;28;45300;-76
2023/10/29 12:03:16;;;;;;;;;0.50;0.00;;;;;;;;5066675;28;45577;-77
2023/10/29 12:05:46;;;;;;;;;0.75;0.00;;;;;;;;5064272;28;45398;-76
2023/10/29 12:08:12;;;;;;;;;0.25;0.00;;;;;;;;5060020;28;45394;-77
2023/10/29 12:10:44;;;;;;;;;1.50;1.50;;;;;;;;5059821;28;45553;-77
2023/10/29 12:13:09;;;;;;;;;0.00;0.00;;;;;;;;5061912;28;45479;-77
2023/10/29 12:15:34;;;;;;;;;0.00;0.00;;;;;;;;5061679;28;45607;-76
2023/10/29 12:18:00;;;;;;;;;0.00;0.00;;;;;;;;5061250;28;45573;-76
2023/10/29 12:20:26;;;;;;;;;0.00;0.00;;;;;;;;5071913;28;45374;-76
2023/10/29 12:22:57;;;;;;;;;0.00;0.00;;;;;;;;5081505;28;45385;-75
2023/10/29 12:25:22;;;;;;;;;0.00;0.00;;;;;;;;5081179;28;45508;-77
2023/10/29 12:27:47;;;;;;;;;0.00;0.00;;;;;;;;5076423;28;46142;-77
2023/10/29 12:30:31;;;;;;;;;0.00;0.00;;;;;;;;5092555;27;45388;-77
2023/10/29 12:33:16;;;;;;;;;0.00;0.00;;;;;;;;5097063;27;45521;-75
2023/10/29 12:35:42;;;;;;;;;0.00;0.00;;;;;;;;5085882;27;46249;-76
2023/10/29 12:38:09;;;;;;;;;0.50;0.00;;;;;;;;5078976;27;46841;-76
2023/10/29 12:40:34;;;;;;;;;0.00;0.00;;;;;;;;5069740;28;45330;-75
2023/10/29 12:43:00;;;;;;;;;0.00;0.00;;;;;;;;5069776;27;45868;-76
2023/10/29 12:45:29;;;;;;;;;0.00;0.00;;;;;;;;5081584;28;45316;-76
2023/10/29 12:48:10;;;;;;;;;0.00;0.00;;;;;;;;5080790;27;46348;-76
2023/10/29 12:50:48;;;;;;;;;0.25;0.00;;;;;;;;5080162;28;45363;-77
2023/10/29 12:53:23;;;;;;;;;0.00;0.00;;;;;;;;5081011;28;45529;-76
2023/10/29 12:55:49;;;;;;;;;1.00;0.50;;;;;;;;5080828;28;45291;-77
2023/10/29 12:58:14;;;;;;;;;1.00;0.00;;;;;;;;5078878;27;46259;-77
2023/10/29 13:00:40;;;;;;;;;1.00;0.00;;;;;;;;5080558;28;45327;-77
2023/10/29 13:03:05;;;;;;;;;0.00;0.00;;;;;;;;5079292;27;45343;-77
2023/10/29 13:05:31;;;;;;;;;0.00;0.00;;;;;;;;5080382;28;45602;-77
2023/10/29 13:07:57;;;;;;;;;0.00;0.00;;;;;;;;5080429;27;46214;-77
2023/10/29 13:10:22;;;;;;;;;1.25;1.25;;;;;;;;5080559;28;45356;-76
2023/10/29 13:12:48;;;;;;;;;0.25;0.00;;;;;;;;5081035;27;45315;-77
2023/10/29 13:15:14;;;;;;;;;0.00;0.00;;;;;;;;5080990;28;46066;-77
2023/10/29 13:17:39;;;;;;;;;1.00;0.00;;;;;;;;5080919;27;46694;-76
2023/10/29 13:20:06;;;;;;;;;0.00;0.00;;;;;;;;5080046;28;45449;-77
2023/10/29 13:22:31;;;;;;;;;1.00;1.00;;;;;;;;5079788;28;45298;-75
2023/10/29 13:24:58;;;;;;;;;0.00;0.00;;;;;;;;5058932;28;45638;-76
2023/10/29 13:27:23;;;;;;;;;0.00;0.00;;;;;;;;5070157;28;45936;-76
2023/10/29 13:29:49;;;;;;;;;0.00;0.00;;;;;;;;5092536;27;45417;-76
2023/10/29 13:32:15;;;;;;;;;0.00;0.00;;;;;;;;5098561;27;45983;-77
2023/10/29 13:34:41;;;;;;;;;0.00;0.00;;;;;;;;5061846;28;45442;-76
2023/10/29 13:37:06;;;;;;;;;0.00;0.00;;;;;;;;5060815;28;46452;-76
2023/10/29 13:39:31;;;;;;;;;0.50;0.50;;;;;;;;5060808;28;45285;-76
2023/10/29 13:41:56;;;;;;;;;0.00;0.00;;;;;;;;5060985;28;45449;-76
2023/10/29 13:44:23;;;;;;;;;0.00;0.00;;;;;;;;5060794;28;45366;-76
2023/10/29 13:46:48;;;;;;;;;0.00;0.00;;;;;;;;5060511;28;46998;-75
2023/10/29 13:49:13;;;;;;;;;0.00;0.00;;;;;;;;5060815;28;45279;-76
2023/10/29 13:51:39;;;;;;;;;0.75;0.00;;;;;;;;5064805;28;45394;-77
2023/10/29 13:54:05;;;;;;;;;0.50;0.00;;;;;;;;5068494;28;45378;-77
2023/10/29 13:56:30;;;;;;;;;0.00;0.00;;;;;;;;5068369;28;46908;-77
2023/10/29 13:58:55;;;;;;;;;1.00;1.00;;;;;;;;5068764;28;45405;-77
2023/10/29 14:01:21;;;;;;;;;0.75;0.75;;;;;;;;5066933;28;45753;-77
2023/10/29 14:03:48;;;;;;;;;0.00;0.00;;;;;;;;5068995;27;45282;-78
2023/10/29 14:06:13;;;;;;;;;0.00;0.00;;;;;;;;5072100;28;45436;-78
2023/10/29 14:08:38;;;;;;;;;0.00;0.00;;;;;;;;5071346;27;45600;-77
2023/10/29 14:11:04;;;;;;;;;1.25;0.00;;;;;;;;5071352;28;45165;-77
2023/10/29 14:13:29;;;;;;;;;0.00;0.00;;;;;;;;5066570;27;45391;-77
2023/10/29 14:15:57;;;;;;;;;1.00;0.00;;;;;;;;5065159;28;46186;-77
2023/10/29 14:18:23;;;;;;;;;0.00;0.00;;;;;;;;5065844;27;45273;-77
2023/10/29 14:20:48;;;;;;;;;0.00;0.00;;;;;;;;5070744;28;45386;-79
2023/10/29 14:23:13;;;;;;;;;0.00;0.00;;;;;;;;5067809;28;45379;-80
2023/10/29 14:25:39;;;;;;;;;0.00;0.00;;;;;;;;5078371;28;46122;-77
2023/10/29 14:28:04;;;;;;;;;1.25;1.00;;;;;;;;5080488;28;45347;-77
2023/10/29 14:30:30;;;;;;;;;0.25;0.25;;;;;;;;5098886;27;45331;-77
2023/10/29 14:32:55;;;;;;;;;0.00;0.00;;;;;;;;5101147;27;45369;-76
2023/10/29 14:35:20;;;;;;;;;2.00;1.50;;;;;;;;5072285;27;46383;-77
2023/10/29 14:37:45;;;;;;;;;0.50;0.25;;;;;;;;5070399;28;46326;-77